Time;durP1;ratioP1;P1;durP2;ratioP2;P2;SDS_P1;SDS_P2;PMS_P1;PMS_P2;Temp;Humidity;BMP_temperature;BMP_pressure;BME280_temperature;BME280_humidity;BME280_pressure;Samples;Min_cycle;Max_cycle;Signal;HPM_P1;HPM_P2
2022/08/11 00:01:47;;;;;;;2.90;1.90;;;;;;;18.84;59.24;100465.09;5035549;28;20174;-80
2022/08/11 00:04:14;;;;;;;2.35;2.15;;;;;;;18.81;59.68;100475.03;5035467;28;20032;-80
2022/08/11 00:06:41;;;;;;;3.63;2.10;;;;;;;18.75;59.95;100465.72;5052898;28;20489;-80
2022/08/11 00:09:10;;;;;;;2.95;2.10;;;;;;;18.72;60.42;100467.72;5053421;28;20029;-79
2022/08/11 00:11:42;;;;;;;3.63;2.20;;;;;;;18.61;60.56;100463.13;5053148;28;20033;-80
2022/08/11 00:14:33;;;;;;;2.35;2.15;;;;;;;18.62;61.21;100473.56;5053191;28;20025;-79
2022/08/11 00:17:07;;;;;;;3.10;1.92;;;;;;;18.52;61.59;100466.38;4991430;28;20046;-79
2022/08/11 00:20:10;;;;;;;2.30;2.10;;;;;;;18.48;61.80;100478.94;4991121;28;20068;-79
2022/08/11 00:22:40;;;;;;;3.65;2.35;;;;;;;18.37;62.02;100462.97;4955347;28;20629;-79
2022/08/11 00:25:16;;;;;;;2.40;2.20;;;;;;;18.38;61.78;100468.16;4971903;28;20043;-80
2022/08/11 00:27:42;;;;;;;2.65;2.33;;;;;;;18.28;62.05;100455.66;4971691;28;20035;-79
2022/08/11 00:30:10;;;;;;;2.40;2.20;;;;;;;18.31;61.98;100466.84;4971812;28;20023;-79
2022/08/11 00:32:42;;;;;;;3.72;2.47;;;;;;;18.25;62.09;100450.59;4971561;28;20050;-79
2022/08/11 00:35:11;;;;;;;2.53;1.95;;;;;;;18.27;61.97;100456.63;4971707;28;20058;-80
2022/08/11 00:37:38;;;;;;;4.78;2.38;;;;;;;18.28;62.40;100467.06;4971470;28;20039;-79
2022/08/11 00:40:14;;;;;;;2.25;1.88;;;;;;;18.28;62.35;100472.31;4971457;28;20391;-79
2022/08/11 00:42:53;;;;;;;3.38;2.25;;;;;;;18.22;62.53;100470.09;4971330;28;20150;-79
2022/08/11 00:45:53;;;;;;;2.85;2.10;;;;;;;18.15;62.68;100459.09;4971219;28;20045;-79
2022/08/11 00:48:35;;;;;;;2.90;2.40;;;;;;;18.19;62.99;100470.28;4971261;28;20127;-79
2022/08/11 00:51:19;;;;;;;2.78;2.15;;;;;;;18.08;63.43;100455.19;4955272;28;20030;-79
2022/08/11 00:54:12;;;;;;;3.88;2.38;;;;;;;18.08;63.59;100465.72;4975815;28;20069;-79
2022/08/11 00:57:11;;;;;;;4.05;2.40;;;;;;;18.06;64.34;100467.59;4990596;28;20022;-79
2022/08/11 00:59:58;;;;;;;2.95;2.22;;;;;;;17.98;64.77;100467.25;5018005;28;20132;-79
2022/08/11 01:02:43;;;;;;;3.75;2.28;;;;;;;17.80;65.13;100460.53;5032037;28;20104;-79
2022/08/11 01:05:44;;;;;;;2.28;1.95;;;;;;;17.81;65.57;100472.75;5014417;28;20512;-79
2022/08/11 01:08:24;;;;;;;;;;;;;;;17.76;66.09;100472.22;5032854;28;20017;-79
2022/08/11 01:11:16;;;;;;;3.88;2.50;;;;;;;17.65;66.42;100470.22;5032314;28;19913;-79
2022/08/11 01:13:59;;;;;;;3.08;2.40;;;;;;;17.57;67.53;100461.94;5030822;28;20519;-80
2022/08/11 01:17:13;;;;;;;4.43;2.40;;;;;;;17.50;67.90;100458.88;5032090;28;20108;-79
2022/08/11 01:20:02;;;;;;;4.57;2.60;;;;;;;17.39;68.34;100456.88;4932261;29;20047;-80
2022/08/11 01:22:33;;;;;;;3.30;2.50;;;;;;;17.36;68.24;100458.84;4932219;29;20062;-80
2022/08/11 01:25:35;;;;;;;2.90;2.60;;;;;;;17.32;68.78;100459.97;4932366;29;20130;-79
2022/08/11 01:28:25;;;;;;;3.08;2.50;;;;;;;17.28;68.99;100464.63;4932462;29;20024;-79
2022/08/11 01:31:15;;;;;;;4.30;2.77;;;;;;;17.27;68.97;100459.44;4932726;29;20039;-80
2022/08/11 01:34:19;;;;;;;6.00;2.80;;;;;;;17.18;69.91;100463.47;4932281;29;20043;-80
2022/08/11 01:37:00;;;;;;;3.47;2.65;;;;;;;17.10;70.61;100463.94;4932043;29;20031;-79
2022/08/11 01:39:48;;;;;;;3.40;3.10;;;;;;;16.99;70.99;100452.38;4932211;29;20059;-79
2022/08/11 01:45:24;;;;;;;3.65;2.72;;;;;;;16.91;71.96;100458.94;4932389;29;20128;-79
2022/08/11 01:48:06;;;;;;;3.20;2.80;;;;;;;16.87;72.14;100464.50;4932266;29;20165;-79
2022/08/11 01:51:00;;;;;;;4.07;2.72;;;;;;;16.85;72.00;100461.09;4932021;29;20159;-79
2022/08/11 01:53:50;;;;;;;3.10;2.53;;;;;;;16.84;71.13;100462.88;4927157;29;20118;-79
2022/08/11 01:56:27;;;;;;;5.20;2.42;;;;;;;16.86;70.57;100463.66;5008739;28;20480;-79
2022/08/11 01:59:07;;;;;;;5.47;2.97;;;;;;;16.88;70.41;100464.38;5052105;28;20032;-79
2022/08/11 02:01:36;;;;;;;5.05;2.80;;;;;;;16.80;70.29;100453.47;5055422;28;20047;-79
2022/08/11 02:04:19;;;;;;;6.97;3.22;;;;;;;16.86;70.34;100465.44;5056075;28;20021;-79
2022/08/11 02:07:01;;;;;;;4.82;3.50;;;;;;;16.77;70.44;100445.78;5055365;28;20538;-79
2022/08/11 02:09:44;;;;;;;4.32;2.72;;;;;;;16.85;70.53;100461.94;5037459;28;20083;-79
2022/08/11 02:12:41;;;;;;;4.90;2.90;;;;;;;16.82;70.79;100448.97;5055655;28;20565;-79
2022/08/11 02:15:14;;;;;;;3.45;2.80;;;;;;;16.80;70.50;100447.38;5055522;28;20476;-79
2022/08/11 02:17:48;;;;;;;4.35;2.80;;;;;;;16.85;70.59;100461.09;5037370;28;20051;-79
2022/08/11 02:23:47;;;;;;;4.07;3.25;;;;;;;16.84;70.68;100456.78;5055621;28;20060;-79
2022/08/11 02:26:52;;;;;;;3.25;2.95;;;;;;;16.83;71.06;100458.56;5052001;28;20033;-79
2022/08/11 02:29:27;;;;;;;4.25;2.92;;;;;;;16.81;71.09;100454.31;4993435;28;20701;-80
2022/08/11 02:35:13;;;;;;;5.60;3.40;;;;;;;16.77;71.21;100458.06;4993330;28;20045;-80
2022/08/11 02:38:10;;;;;;;3.92;3.30;;;;;;;16.79;71.44;100464.09;4993119;28;20144;-80
2022/08/11 02:41:00;;;;;;;5.97;3.33;;;;;;;16.79;71.48;100458.84;4973839;28;20043;-80
2022/08/11 02:44:08;;;;;;;3.55;2.88;;;;;;;16.77;71.38;100458.94;4973555;28;20224;-80
2022/08/11 02:46:44;;;;;;;6.00;3.58;;;;;;;16.77;71.61;100465.97;4957233;28;20035;-80
2022/08/11 02:49:53;;;;;;;8.57;3.42;;;;;;;16.78;71.70;100454.53;4973724;28;20031;-80
2022/08/11 02:52:59;;;;;;;4.75;3.17;;;;;;;16.77;71.78;100458.06;4971190;28;20506;-80
2022/08/11 02:55:51;;;;;;;5.25;3.33;;;;;;;16.67;71.97;100444.59;4954155;29;20031;-80
2022/08/11 02:59:49;;;;;;;3.17;2.83;;;;;;;16.69;72.75;100451.47;4954217;29;20074;-80
2022/08/11 03:01:54;;;;;;;3.72;2.92;;;;;;;16.65;72.95;100457.00;4953789;29;20035;-79
2022/08/11 03:04:29;;;;;;;4.32;3.20;;;;;;;16.62;73.10;100450.13;4954063;29;20051;-79
2022/08/11 03:07:05;;;;;;;3.30;3.00;;;;;;;16.60;73.55;100457.28;4989345;28;20062;-79
2022/08/11 03:09:36;;;;;;;6.50;2.78;;;;;;;16.59;73.74;100458.19;4992391;28;20070;-79
2022/08/11 03:18:30;;;;;;;3.80;2.90;;;;;;;16.54;73.73;100454.13;5021964;28;19959;-79
2022/08/11 03:21:20;;;;;;;4.88;3.42;;;;;;;16.53;74.53;100460.34;5034291;28;20030;-79
2022/08/11 03:24:17;;;;;;;6.70;3.47;;;;;;;16.47;74.23;100461.53;5033873;28;20570;-79
2022/08/11 03:27:03;;;;;;;7.60;3.25;;;;;;;16.49;75.18;100462.31;4934032;29;20078;-80
2022/08/11 03:29:32;;;;;;;7.45;3.22;;;;;;;16.46;75.29;100465.94;4934133;29;20050;-79
2022/08/11 03:32:05;;;;;;;3.60;3.30;;;;;;;16.41;75.61;100454.00;4934213;29;20126;-79
2022/08/11 03:34:36;;;;;;;5.13;3.60;;;;;;;16.37;75.89;100450.72;4934077;29;20039;-79
2022/08/11 03:37:47;;;;;;;3.80;3.10;;;;;;;16.41;76.47;100462.75;4934281;29;20050;-79
2022/08/11 03:40:05;;;;;;;3.70;2.92;;;;;;;16.33;76.66;100451.81;4934115;29;20031;-79
2022/08/11 03:42:55;;;;;;;3.35;3.05;;;;;;;16.39;76.96;100466.38;4933824;29;20043;-79
2022/08/11 03:45:34;;;;;;;4.05;3.20;;;;;;;16.39;76.71;100466.38;4934207;29;20127;-79
2022/08/11 03:48:20;;;;;;;6.20;3.50;;;;;;;16.40;76.22;100460.22;4918138;29;20063;-79
2022/08/11 03:51:03;;;;;;;4.22;3.10;;;;;;;16.42;76.54;100455.69;4933656;29;20152;-80
2022/08/11 03:54:00;;;;;;;6.15;3.15;;;;;;;16.47;76.30;100461.53;4945347;29;20035;-80
2022/08/11 03:56:28;;;;;;;4.55;3.25;;;;;;;16.50;76.04;100461.34;4936849;29;20032;-80
2022/08/11 03:59:05;;;;;;;5.10;3.35;;;;;;;16.53;75.84;100453.28;4936729;29;20112;-80
2022/08/11 04:01:45;;;;;;;3.35;3.00;;;;;;;16.60;75.62;100456.41;4952633;29;20054;-80
2022/08/11 04:04:43;;;;;;;3.53;3.22;;;;;;;16.73;75.32;100456.56;5027884;28;20045;-80
2022/08/11 04:07:11;;;;;;;4.53;2.95;;;;;;;16.99;74.64;100452.38;4991633;28;20042;-79
2022/08/11 04:10:01;;;;;;;3.35;3.03;;;;;;;17.37;73.48;100453.50;4991231;28;20038;-79
2022/08/11 04:12:57;;;;;;;5.70;3.30;;;;;;;17.85;71.35;100448.75;4975143;28;20034;-79
2022/08/11 04:15:59;;;;;;;3.95;3.28;;;;;;;18.35;69.35;100449.03;4991452;28;20293;-80
2022/08/11 04:18:49;;;;;;;5.05;3.38;;;;;;;18.84;67.32;100453.72;4991372;28;20133;-80
2022/08/11 04:21:39;;;;;;;5.35;3.10;;;;;;;19.42;65.07;100454.91;4991496;28;20026;-80
2022/08/11 04:24:18;;;;;;;4.43;3.20;;;;;;;20.04;62.66;100454.03;4974446;28;20134;-80
2022/08/11 04:27:07;;;;;;;4.75;3.00;;;;;;;20.36;61.26;100456.97;4990873;28;20030;-80
2022/08/11 04:30:02;;;;;;;4.00;3.13;;;;;;;20.46;60.77;100452.66;4974717;28;20042;-80
2022/08/11 04:32:46;;;;;;;4.45;3.00;;;;;;;20.65;59.63;100458.28;4991187;28;20109;-79
2022/08/11 04:35:42;;;;;;;5.03;3.30;;;;;;;20.77;58.51;100453.84;4991073;28;20066;-80
2022/08/11 04:38:45;;;;;;;3.33;2.83;;;;;;;21.04;57.91;100448.25;4991009;28;20141;-79
2022/08/11 04:43:19;;;;;;;2.90;2.55;;;;;;;21.75;56.34;100455.97;4990994;28;20069;-80
2022/08/11 04:45:09;;;;;;;4.07;2.90;;;;;;;22.87;53.08;100431.59;5044545;28;20373;-80
2022/08/11 05:03:13;;;;;;;3.00;2.42;;;;;;;24.33;49.03;100455.00;5052249;28;20028;-80
2022/08/11 05:06:00;;;;;;;;;;;;;;;25.62;46.26;100457.09;5052259;28;20484;-81
2022/08/11 05:08:59;;;;;;;3.13;2.35;;;;;;;26.67;43.19;100455.63;5052161;28;19916;-81
2022/08/11 05:11:24;;;;;;;3.33;2.60;;;;;;;26.50;43.12;100462.69;5034446;28;20033;-81
2022/08/11 05:37:01;;;;;;;3.53;2.72;;;;;;;26.92;42.55;100475.34;5051752;28;20047;-80
2022/08/11 05:56:20;;;;;;;3.92;2.90;;;;;;;27.15;43.12;100480.22;5051657;28;20550;-80
2022/08/11 05:58:51;;;;;;;3.78;3.05;;;;;;;27.38;43.05;100481.34;5033487;28;20033;-80
2022/08/11 06:01:35;;;;;;;5.78;2.95;;;;;;;28.43;41.55;100496.06;5051785;28;20392;-80
2022/08/11 06:04:15;;;;;;;3.10;2.72;;;;;;;30.18;38.74;100485.41;5051823;28;20167;-81
2022/08/11 06:07:07;;;;;;;3.95;3.03;;;;;;;30.53;37.28;100499.25;5051212;28;20071;-81
2022/08/11 06:09:37;;;;;;;5.72;2.90;;;;;;;29.21;39.23;100502.75;4990236;28;20402;-80
2022/08/11 06:12:07;;;;;;;7.50;3.33;;;;;;;28.57;40.40;100499.94;4989755;28;20125;-80
2022/08/11 06:14:32;;;;;;;;;;;;;;;28.18;41.61;100507.72;4990229;28;20652;-81
2022/08/11 06:17:00;;;;;;;5.00;2.75;;;;;;;27.91;42.06;100493.63;4973253;28;19913;-81
2022/08/11 06:19:34;;;;;;;5.13;3.03;;;;;;;27.93;42.59;100501.47;4989825;28;20550;-81
2022/08/11 06:22:02;;;;;;;3.83;2.92;;;;;;;28.01;42.53;100494.31;4989439;28;20049;-80
2022/08/11 06:24:30;;;;;;;5.03;2.80;;;;;;;28.29;42.60;100499.38;4989749;28;20430;-80
2022/08/11 06:26:57;;;;;;;4.72;2.72;;;;;;;28.62;41.94;100502.13;4989393;28;20038;-80
2022/08/11 06:29:24;;;;;;;6.15;2.80;;;;;;;28.30;41.30;100503.72;4989755;28;20367;-81
2022/08/11 06:32:02;;;;;;;3.95;2.78;;;;;;;27.58;42.86;100496.16;4989479;28;20038;-81
2022/08/11 06:34:46;;;;;;;5.88;2.88;;;;;;;28.01;42.03;100501.50;4989604;28;20494;-81
2022/08/11 06:37:26;;;;;;;3.58;2.60;;;;;;;27.99;42.29;100498.16;4973324;28;20065;-80
2022/08/11 06:40:03;;;;;;;5.47;3.20;;;;;;;28.71;41.38;100491.22;4989392;28;20042;-79
2022/08/11 06:42:46;;;;;;;6.43;2.80;;;;;;;30.46;39.32;100499.09;4989629;28;20030;-79
2022/08/11 06:45:42;;;;;;;2.65;2.40;;;;;;;31.11;37.67;100500.41;4989931;28;20050;-79
2022/08/11 06:48:16;;;;;;;6.68;3.13;;;;;;;31.63;37.18;100493.25;5054969;28;20080;-79
2022/08/11 06:53:33;;;;;;;3.85;2.60;;;;;;;34.70;33.12;100494.06;5054623;28;20042;-79
2022/08/11 07:01:45;;;;;;;5.10;2.85;;;;;;;41.15;26.10;100489.75;5054797;28;20082;-79
2022/08/11 07:04:12;;;;;;;6.82;2.63;;;;;;;41.42;25.23;100487.09;5054717;28;20070;-79
2022/08/11 07:15:58;;;;;;;3.45;2.47;;;;;;;44.90;22.14;100478.78;4973289;28;20604;-79
2022/08/11 07:30:01;;;;;;;3.78;2.17;;;;;;;47.64;19.79;100474.03;4973029;28;20045;-77
2022/08/11 07:32:35;;;;;;;5.07;2.67;;;;;;;48.15;19.31;100476.88;4972943;28;20117;-76
2022/08/11 07:35:14;;;;;;;3.15;2.40;;;;;;;49.03;18.50;100476.09;4972513;28;20035;-77
2022/08/11 07:37:46;;;;;;;2.83;2.30;;;;;;;49.76;18.03;100483.34;4972813;28;20410;-77
2022/08/11 07:40:12;;;;;;;3.15;2.42;;;;;;;50.30;17.72;100489.81;4972686;28;20038;-77
2022/08/11 07:42:40;;;;;;;3.53;1.98;;;;;;;50.56;17.07;100484.44;4972654;28;20035;-78
2022/08/11 07:53:46;;;;;;;3.17;2.08;;;;;;;48.76;17.68;100475.00;4972481;28;20033;-78
2022/08/11 07:56:15;;;;;;;3.47;2.30;;;;;;;47.47;19.16;100486.44;4972531;28;20482;-78
2022/08/11 08:18:06;;;;;;;5.25;2.55;;;;;;;48.70;18.02;100473.41;4982200;28;20085;-78
2022/08/11 08:20:36;;;;;;;3.27;2.40;;;;;;;47.86;18.33;100477.03;5053052;28;20123;-77
2022/08/11 08:23:03;;;;;;;4.50;2.67;;;;;;;47.31;18.60;100462.09;5052733;28;20454;-78
2022/08/11 08:25:30;;;;;;;2.90;2.20;;;;;;;47.41;18.55;100468.31;5053059;28;20147;-76
2022/08/11 08:27:57;;;;;;;2.55;2.35;;;;;;;46.53;19.19;100464.06;5052628;28;20033;-78
2022/08/11 08:33:15;;;;;;;2.85;2.13;;;;;;;40.50;22.92;100443.97;5043001;28;20080;-78
2022/08/11 08:35:41;;;;;;;;;;;;;;;36.76;26.74;100452.47;5040943;28;20033;-78
2022/08/11 08:38:07;;;;;;;2.72;2.53;;;;;;;34.49;29.82;100448.28;5052255;28;20343;-78
2022/08/11 08:40:32;;;;;;;6.28;3.08;;;;;;;32.63;32.35;100435.88;5051748;28;20040;-77
2022/08/11 08:43:03;;;;;;;5.43;2.72;;;;;;;31.35;34.59;100437.44;5051932;28;20464;-78
2022/08/11 08:45:33;;;;;;;5.13;2.88;;;;;;;30.53;36.10;100438.25;5052599;28;20037;-78
2022/08/11 08:48:01;;;;;;;3.38;2.40;;;;;;;29.99;36.58;100429.41;5052279;28;20040;-78
2022/08/11 08:53:20;;;;;;;2.63;2.40;;;;;;;28.73;38.32;100440.94;5052144;28;20039;-78
2022/08/11 08:55:46;;;;;;;;;;;;;;;27.89;40.08;100446.59;5052539;28;20112;-78
2022/08/11 08:58:14;;;;;;;4.57;2.72;;;;;;;26.86;42.68;100447.44;5052139;28;19958;-78
2022/08/11 09:00:43;;;;;;;4.65;3.30;;;;;;;26.54;43.97;100439.19;5052495;28;20052;-78
2022/08/11 09:03:10;;;;;;;3.70;3.30;;;;;;;26.42;44.11;100422.56;5052256;28;20059;-78
2022/08/11 09:05:36;;;;;;;4.95;2.67;;;;;;;26.32;43.00;100441.31;5052376;28;20438;-78
2022/08/11 09:08:02;;;;;;;2.85;2.65;;;;;;;26.32;43.10;100443.97;5051989;28;20100;-78
2022/08/11 09:10:29;;;;;;;5.68;2.50;;;;;;;26.25;43.80;100432.25;5052108;28;20107;-78
2022/08/11 09:12:56;;;;;;;3.28;2.88;;;;;;;26.54;43.59;100429.31;5052166;28;20029;-78
2022/08/11 09:15:23;;;;;;;3.00;2.70;;;;;;;26.77;42.54;100429.66;5052215;28;20029;-78
2022/08/11 09:17:52;;;;;;;2.67;2.47;;;;;;;26.77;41.73;100432.34;5052056;28;20468;-78
2022/08/11 09:20:21;;;;;;;3.10;2.43;;;;;;;26.64;40.92;100433.75;5052190;28;20116;-79
2022/08/11 09:28:20;;;;;;;3.60;2.55;;;;;;;26.89;41.00;100434.75;5051953;28;20039;-79
2022/08/11 09:30:52;;;;;;;2.40;2.20;;;;;;;26.96;41.16;100433.94;5052006;28;20086;-78
2022/08/11 09:33:18;;;;;;;5.25;2.42;;;;;;;27.08;40.85;100424.66;5051874;28;20029;-79
2022/08/11 09:35:47;;;;;;;8.45;2.70;;;;;;;27.04;39.75;100414.44;5051699;28;20029;-79
2022/08/11 09:41:04;;;;;;;2.45;2.20;;;;;;;27.85;39.19;100435.34;5051787;28;20052;-77
2022/08/11 09:46:16;;;;;;;4.60;2.75;;;;;;;27.94;38.61;100441.56;5051761;28;20040;-78
2022/08/11 09:48:44;;;;;;;3.92;2.20;;;;;;;27.65;38.36;100447.34;5052102;28;20036;-77
2022/08/11 09:51:10;;;;;;;2.53;2.20;;;;;;;27.23;38.72;100434.81;5051682;28;20056;-77
2022/08/11 09:53:39;;;;;;;4.65;2.15;;;;;;;27.24;39.14;100439.16;5051523;28;20457;-77
2022/08/11 09:58:53;;;;;;;7.03;2.15;;;;;;;27.11;39.33;100424.38;5051708;28;20091;-77
2022/08/11 10:01:26;;;;;;;3.80;2.25;;;;;;;27.26;39.65;100432.66;5051563;28;20508;-77
2022/08/11 10:03:57;;;;;;;3.92;2.45;;;;;;;27.22;39.54;100425.09;5051395;28;20036;-77
2022/08/11 10:09:08;;;;;;;3.08;2.13;;;;;;;26.95;40.04;100429.59;5051566;28;20071;-77
2022/08/11 10:11:36;;;;;;;3.50;2.10;;;;;;;27.08;39.66;100411.28;5051535;28;20029;-77
2022/08/11 10:16:50;;;;;;;2.22;2.10;;;;;;;26.70;40.39;100412.56;5051617;28;20102;-77
2022/08/11 10:19:18;;;;;;;4.00;2.20;;;;;;;26.57;40.25;100421.00;5051074;28;20036;-77
2022/08/11 10:27:41;;;;;;;2.90;2.17;;;;;;;26.12;39.58;100403.28;4993543;28;20046;-77
2022/08/11 10:35:37;;;;;;;2.85;1.90;;;;;;;25.82;39.15;100404.47;4993378;28;20114;-77
2022/08/11 10:38:04;;;;;;;2.13;1.90;;;;;;;25.73;39.35;100405.34;4993071;28;20026;-77
2022/08/11 10:40:31;;;;;;;2.00;1.80;;;;;;;25.58;39.84;100388.19;4993230;28;20046;-77
2022/08/11 10:43:02;;;;;;;3.22;1.80;;;;;;;25.78;40.97;100405.75;4993039;28;20054;-77
2022/08/11 10:48:26;;;;;;;5.00;1.73;;;;;;;25.47;38.62;100396.41;4935208;29;20472;-76
2022/08/11 10:51:12;;;;;;;2.72;1.83;;;;;;;25.44;39.36;100394.03;4935240;29;20040;-77
2022/08/11 10:59:13;;;;;;;2.28;2.10;;;;;;;25.37;41.55;100391.97;4935190;29;20075;-77
2022/08/11 11:01:43;;;;;;;3.75;2.17;;;;;;;25.43;42.09;100389.69;4935021;29;20427;-77
2022/08/11 11:04:13;;;;;;;;;;;;;;;25.53;40.69;100390.44;4935347;29;20063;-77
2022/08/11 11:07:00;;;;;;;4.00;2.20;;;;;;;25.60;40.81;100387.03;4935044;29;19919;-77
2022/08/11 11:09:32;;;;;;;3.15;1.80;;;;;;;25.68;39.93;100386.28;4935066;29;20036;-77
2022/08/11 11:18:00;;;;;;;4.35;2.15;;;;;;;25.31;41.39;100381.03;4934691;29;20039;-77
2022/08/11 11:20:42;;;;;;;3.45;1.80;;;;;;;25.38;42.38;100382.13;4934762;29;20024;-77
2022/08/11 11:23:07;;;;;;;2.22;1.98;;;;;;;25.55;41.76;100372.47;4934334;29;20036;-77
2022/08/11 11:26:08;;;;;;;2.30;2.08;;;;;;;25.64;42.54;100383.09;5014563;28;20543;-77
2022/08/11 11:28:43;;;;;;;2.60;2.40;;;;;;;25.62;42.33;100369.06;5034452;28;20068;-77
2022/08/11 11:31:27;;;;;;;4.00;2.33;;;;;;;25.58;42.94;100372.19;5016182;28;20385;-77
2022/08/11 11:34:11;;;;;;;2.42;2.22;;;;;;;25.68;42.88;100361.44;5033293;28;20121;-77
2022/08/11 11:36:45;;;;;;;3.70;2.47;;;;;;;25.67;42.83;100357.94;5034245;28;20493;-77
2022/08/11 11:39:11;;;;;;;3.78;2.60;;;;;;;25.71;43.73;100370.00;5033975;28;20052;-77
2022/08/11 11:41:37;;;;;;;5.63;2.10;;;;;;;25.42;43.21;100353.34;5034067;28;20029;-77
2022/08/11 11:44:03;;;;;;;5.85;2.40;;;;;;;25.28;43.18;100350.19;5033821;28;20037;-77
2022/08/11 11:46:30;;;;;;;3.35;2.00;;;;;;;25.44;44.08;100340.69;5033931;28;20021;-77
2022/08/11 11:48:57;;;;;;;2.55;2.15;;;;;;;25.72;43.75;100338.81;5033825;28;20033;-77
2022/08/11 11:51:24;;;;;;;2.50;2.30;;;;;;;25.94;42.50;100337.53;5033885;28;20030;-77
2022/08/11 11:53:51;;;;;;;3.53;2.33;;;;;;;26.09;43.20;100325.31;5048644;28;20060;-77
2022/08/11 11:56:18;;;;;;;3.10;1.90;;;;;;;26.32;42.55;100336.31;5053568;28;20031;-77
2022/08/11 12:01:30;;;;;;;2.03;1.80;;;;;;;26.32;42.01;100329.16;5053625;28;20124;-77
2022/08/11 12:03:57;;;;;;;2.88;1.95;;;;;;;26.26;40.96;100310.25;5053283;28;20562;-77
2022/08/11 12:06:24;;;;;;;2.00;1.90;;;;;;;26.22;41.17;100308.91;5053044;28;20131;-77
2022/08/11 12:08:53;;;;;;;4.72;1.92;;;;;;;26.13;40.95;100302.66;5053482;28;20021;-77
2022/08/11 12:14:07;;;;;;;3.75;3.20;;;;;;;26.24;39.51;100307.72;5053299;28;20035;-77
2022/08/11 12:16:39;;;;;;;4.85;2.10;;;;;;;26.41;39.31;100307.84;5053314;28;20464;-77
2022/08/11 12:19:10;;;;;;;3.42;2.70;;;;;;;26.55;39.10;100318.81;5053057;28;20025;-77
2022/08/11 12:21:37;;;;;;;7.63;5.05;;;;;;;26.67;40.74;100306.00;5053183;28;20033;-77
2022/08/11 12:29:16;;;;;;;3.45;2.42;;;;;;;26.08;40.64;100320.94;5052861;28;20455;-77
2022/08/11 12:31:42;;;;;;;4.07;2.35;;;;;;;26.04;41.33;100309.78;5052977;28;20489;-77
2022/08/11 12:34:11;;;;;;;4.68;2.70;;;;;;;26.20;41.49;100301.03;5052653;28;20017;-77
2022/08/11 12:36:39;;;;;;;3.90;2.30;;;;;;;26.22;40.82;100288.38;5052738;28;20028;-77
2022/08/11 12:39:08;;;;;;;2.42;2.00;;;;;;;26.29;39.76;100288.56;5052336;28;20091;-77
2022/08/11 12:47:08;;;;;;;5.40;2.55;;;;;;;26.07;40.81;100285.41;5052419;28;20113;-78
2022/08/11 12:52:26;;;;;;;3.33;2.33;;;;;;;25.88;41.31;100274.94;5052557;28;20090;-77
2022/08/11 12:55:11;;;;;;;4.13;2.47;;;;;;;25.91;41.92;100279.13;5052627;28;20017;-78
2022/08/11 13:06:04;;;;;;;2.35;2.15;;;;;;;26.47;40.38;100261.84;5051982;28;20047;-77
2022/08/11 13:08:34;;;;;;;5.68;2.63;;;;;;;26.59;38.93;100247.22;5052150;28;20025;-77
2022/08/11 13:13:47;;;;;;;3.22;2.10;;;;;;;26.83;39.39;100235.75;5052418;28;20179;-78
2022/08/11 13:16:13;;;;;;;4.38;2.20;;;;;;;26.92;38.38;100239.28;5051941;28;20025;-77
2022/08/11 13:18:41;;;;;;;3.10;2.00;;;;;;;26.87;38.56;100235.25;5052000;28;20373;-77
2022/08/11 13:21:09;;;;;;;3.03;1.90;;;;;;;26.66;38.38;100236.69;5052002;28;20029;-77
2022/08/11 13:23:36;;;;;;;2.92;2.13;;;;;;;26.55;39.87;100252.03;5052038;28;20480;-77
2022/08/11 13:26:02;;;;;;;3.05;2.25;;;;;;;26.33;40.16;100253.38;5052059;28;20025;-77
2022/08/11 13:28:28;;;;;;;4.18;2.10;;;;;;;26.04;41.13;100247.50;5051760;28;20025;-77
2022/08/11 13:33:48;;;;;;;8.63;2.83;;;;;;;25.43;41.85;100245.69;5052050;28;20040;-77
2022/08/11 13:36:18;;;;;;;4.45;2.25;;;;;;;25.29;42.23;100241.72;5051713;28;20029;-77
2022/08/11 13:38:44;;;;;;;8.15;3.60;;;;;;;25.33;42.21;100237.75;5051840;28;20104;-77
2022/08/11 13:43:55;;;;;;;5.60;2.50;;;;;;;25.37;39.15;100231.97;5052191;28;20036;-77
2022/08/11 13:46:23;;;;;;;5.72;2.10;;;;;;;25.47;39.66;100228.38;5051751;28;20037;-77
2022/08/11 13:48:51;;;;;;;2.60;2.00;;;;;;;25.59;38.88;100211.97;5051798;28;20025;-77
2022/08/11 13:51:30;;;;;;;2.35;1.80;;;;;;;25.82;38.21;100212.34;5051485;28;20128;-77
2022/08/11 13:54:20;;;;;;;3.28;1.85;;;;;;;26.02;38.51;100212.97;5051033;28;20025;-77
2022/08/11 13:56:50;;;;;;;4.68;2.70;;;;;;;25.95;38.80;100213.75;5011765;28;20053;-77
2022/08/11 13:59:24;;;;;;;3.78;2.53;;;;;;;26.10;39.12;100207.69;5013498;28;20156;-77
2022/08/11 14:01:59;;;;;;;3.55;1.67;;;;;;;26.23;38.70;100207.25;5012093;28;20041;-77
2022/08/11 14:04:33;;;;;;;5.07;1.90;;;;;;;26.20;38.98;100201.38;5013343;28;20121;-77
2022/08/11 14:07:03;;;;;;;3.45;1.90;;;;;;;25.92;39.59;100196.25;5011861;28;20049;-76
2022/08/11 14:09:36;;;;;;;2.05;1.95;;;;;;;25.78;39.68;100208.31;5013126;28;20033;-76
2022/08/11 14:15:04;;;;;;;3.35;1.92;;;;;;;25.24;40.74;100199.53;5013333;28;20029;-76
2022/08/11 14:17:32;;;;;;;2.80;1.85;;;;;;;25.22;41.38;100209.47;5013199;28;20053;-76
2022/08/11 14:20:03;;;;;;;3.88;2.00;;;;;;;25.26;41.20;100207.34;5013265;28;20045;-76
2022/08/11 14:22:29;;;;;;;2.53;1.95;;;;;;;25.25;41.06;100184.38;5012869;28;20109;-76
2022/08/11 14:24:57;;;;;;;3.30;2.30;;;;;;;25.36;40.19;100192.09;5013252;28;20030;-76
2022/08/11 14:27:25;;;;;;;3.22;1.90;;;;;;;25.39;40.11;100189.97;5012890;28;20120;-77
2022/08/11 14:29:53;;;;;;;2.38;1.70;;;;;;;25.42;39.93;100180.00;5013149;28;20069;-76
2022/08/11 14:32:19;;;;;;;2.88;1.85;;;;;;;25.46;39.80;100171.53;5012909;28;20472;-76
2022/08/11 14:34:45;;;;;;;2.58;2.10;;;;;;;25.55;39.60;100172.44;5051775;28;20037;-77
2022/08/11 14:37:14;;;;;;;3.40;1.88;;;;;;;25.63;38.99;100170.66;5054909;28;20029;-76
2022/08/11 14:39:45;;;;;;;1.60;1.50;;;;;;;25.64;39.15;100163.50;5055038;28;20033;-76
2022/08/11 14:47:51;;;;;;;2.38;1.85;;;;;;;25.70;39.58;100165.53;5054920;28;20083;-77
2022/08/11 14:50:26;;;;;;;2.42;1.98;;;;;;;25.74;39.10;100174.88;5054608;28;20032;-76
2022/08/11 14:52:57;;;;;;;9.57;1.65;;;;;;;25.67;39.21;100176.53;5054777;28;20456;-76
2022/08/11 14:58:11;;;;;;;1.60;1.50;;;;;;;25.65;38.26;100167.81;5055031;28;20573;-76
2022/08/11 15:00:39;;;;;;;4.47;2.08;;;;;;;25.73;38.28;100175.06;5054625;28;20021;-76
2022/08/11 15:03:09;;;;;;;3.03;1.80;;;;;;;25.78;38.39;100170.94;5054819;28;20558;-76
2022/08/11 15:05:39;;;;;;;1.95;1.85;;;;;;;25.86;38.63;100170.16;5054624;28;20045;-77
2022/08/11 15:08:05;;;;;;;2.70;2.20;;;;;;;25.92;38.28;100176.72;5054439;28;20021;-76
2022/08/11 15:10:31;;;;;;;3.28;1.90;;;;;;;25.83;39.17;100166.00;5054305;28;20095;-77
2022/08/11 15:12:57;;;;;;;23.02;20.80;;;;;;;25.79;39.19;100158.47;5054396;28;20021;-76
2022/08/11 15:18:14;;;;;;;3.15;2.30;;;;;;;25.78;38.52;100170.94;5054646;28;20083;-77
2022/08/11 15:26:12;;;;;;;2.30;2.10;;;;;;;25.58;38.48;100166.81;5054347;28;20499;-76
2022/08/11 15:45:54;;;;;;;4.53;2.20;;;;;;;25.30;40.48;100160.75;4992129;28;20125;-77
2022/08/11 15:48:34;;;;;;;2.58;1.88;;;;;;;25.31;40.29;100168.56;4991813;28;20119;-77
2022/08/11 15:51:26;;;;;;;2.97;2.10;;;;;;;25.25;40.65;100161.19;4992064;28;20034;-76
2022/08/11 15:53:54;;;;;;;6.15;1.95;;;;;;;25.23;40.83;100152.50;4953225;29;20071;-77
2022/08/11 15:56:23;;;;;;;4.03;2.20;;;;;;;25.28;41.07;100168.91;4952837;29;20043;-77
2022/08/11 16:04:25;;;;;;;2.00;1.77;;;;;;;25.20;40.14;100171.50;4953225;29;20061;-76
2022/08/11 16:07:04;;;;;;;2.28;1.90;;;;;;;25.13;39.86;100168.59;4952815;29;20050;-77
2022/08/11 16:09:49;;;;;;;3.95;2.00;;;;;;;25.07;40.35;100171.84;4952762;29;20055;-76
2022/08/11 16:12:18;;;;;;;2.45;1.95;;;;;;;25.00;40.35;100161.94;4952688;29;20071;-77
2022/08/11 16:17:39;;;;;;;3.73;2.10;;;;;;;24.97;41.32;100157.75;4952684;28;20514;-76
2022/08/11 16:20:07;;;;;;;3.42;2.17;;;;;;;24.96;41.66;100155.22;4968550;28;20050;-77
2022/08/11 16:22:37;;;;;;;2.08;1.80;;;;;;;24.93;41.78;100159.03;4971733;28;20098;-76
2022/08/11 16:25:06;;;;;;;4.28;1.98;;;;;;;24.88;42.35;100153.31;4971959;28;20066;-77
2022/08/11 16:27:36;;;;;;;3.08;2.22;;;;;;;24.93;42.35;100161.69;4971675;28;20395;-76